Time;durP1;ratioP1;P1;durP2;ratioP2;P2;SDS_P1;SDS_P2;PMS_P1;PMS_P2;Temp;Humidity;BMP_temperature;BMP_pressure;BME280_temperature;BME280_humidity;BME280_pressure;Samples;Min_cycle;Max_cycle;Signal;HPM_P1;HPM_P2
2021/10/17 09:32:43;;;;;;;12.55;3.42;;;19.80;63.70;;;;;;5038741;27;86479;-56
2021/10/17 09:35:08;;;;;;;11.40;3.42;;;19.80;63.80;;;;;;5027999;28;86231;-64
2021/10/17 09:37:40;;;;;;;12.38;3.10;;;19.80;62.90;;;;;;5028292;28;86371;-59
2021/10/17 09:40:10;;;;;;;9.18;3.60;;;19.80;62.90;;;;;;5028208;28;86829;-63
2021/10/17 09:42:40;;;;;;;9.93;3.53;;;19.90;63.20;;;;;;5026848;28;88064;-63
2021/10/17 09:45:19;;;;;;;12.15;4.10;;;19.90;62.70;;;;;;5026492;28;86559;-63
2021/10/17 09:47:45;;;;;;;14.02;3.58;;;20.00;62.20;;;;;;5026345;28;87110;-63
2021/10/17 09:50:12;;;;;;;8.27;3.17;;;20.00;62.00;;;;;;5025621;28;88554;-63
2021/10/17 09:52:37;;;;;;;7.80;2.55;;;20.10;61.80;;;;;;5025454;28;86918;-63
2021/10/17 09:55:08;;;;;;;12.65;3.08;;;20.10;61.50;;;;;;5028003;27;86359;-63
2021/10/17 09:57:37;;;;;;;13.02;3.95;;;20.20;61.40;;;;;;5027424;27;86230;-63
2021/10/17 10:00:04;;;;;;;9.80;2.95;;;20.30;61.10;;;;;;5025687;28;88044;-63
2021/10/17 10:02:30;;;;;;;9.98;2.53;;;20.30;60.90;;;;;;5025253;28;86817;-63
2021/10/17 10:04:57;;;;;;;9.40;3.60;;;20.30;60.70;;;;;;5025371;28;86419;-63
2021/10/17 10:07:24;;;;;;;11.55;3.63;;;20.40;60.50;;;;;;5027472;27;87039;-63
2021/10/17 10:09:52;;;;;;;11.18;3.28;;;20.40;60.30;;;;;;5025685;28;88275;-63
2021/10/17 10:12:24;;;;;;;10.93;3.03;;;20.40;60.20;;;;;;5026975;27;86198;-63
2021/10/17 10:14:51;;;;;;;10.75;3.53;;;20.50;60.20;;;;;;5024995;28;86699;-63
2021/10/17 10:17:18;;;;;;;8.88;3.25;;;20.50;60.10;;;;;;5025072;28;86750;-64
2021/10/17 10:19:45;;;;;;;8.90;3.15;;;20.50;60.00;;;;;;5026132;28;87119;-64
2021/10/17 10:22:12;;;;;;;7.53;2.65;;;20.50;60.00;;;;;;5024958;28;89103;-63
2021/10/17 10:24:38;;;;;;;9.75;3.13;;;20.50;59.90;;;;;;5024336;28;86349;-63
2021/10/17 10:27:04;;;;;;;5.82;2.85;;;20.50;59.90;;;;;;5024460;28;86385;-67
2021/10/17 10:29:32;;;;;;;8.88;3.17;;;20.50;59.80;;;;;;5025945;28;86413;-67
2021/10/17 10:32:26;;;;;;;9.93;3.38;;;20.60;59.80;;;;;;5026225;27;86936;-67
2021/10/17 10:34:52;;;;;;;10.93;3.65;;;20.60;59.80;;;;;;5007138;28;87354;-68
2021/10/17 10:37:28;;;;;;;9.90;3.40;;;20.60;59.80;;;;;;5007546;28;87047;-68
2021/10/17 10:40:15;;;;;;;8.18;3.15;;;20.60;59.70;;;;;;5023673;28;86801;-64
2021/10/17 10:42:43;;;;;;;10.68;3.15;;;20.60;59.70;;;;;;5017468;28;86474;-69
2021/10/17 10:45:23;;;;;;;29.77;5.05;;;20.60;59.60;;;;;;4992167;28;87717;-70
2021/10/17 10:48:11;;;;;;;33.63;7.05;;;20.60;59.70;;;;;;4993188;28;86199;-68
2021/10/17 10:50:44;;;;;;;38.83;8.00;;;20.60;59.80;;;;;;5008730;28;87262;-70
2021/10/17 10:53:11;;;;;;;27.75;6.47;;;20.60;59.80;;;;;;4992323;28;88314;-68
2021/10/17 10:55:48;;;;;;;36.60;8.57;;;20.60;59.90;;;;;;4993855;28;86686;-67
2021/10/17 10:58:23;;;;;;;34.20;8.07;;;20.70;59.90;;;;;;4990898;28;86324;-70
2021/10/17 11:00:49;;;;;;;41.15;7.70;;;20.70;59.90;;;;;;5010040;28;88016;-72
2021/10/17 11:03:16;;;;;;;39.83;7.57;;;20.70;60.00;;;;;;5010694;28;87598;-67
2021/10/17 11:06:11;;;;;;;34.05;8.10;;;20.70;60.00;;;;;;4993790;28;86144;-73
2021/10/17 11:08:42;;;;;;;35.45;7.78;;;20.70;60.00;;;;;;5010766;28;86859;-72
2021/10/17 11:11:08;;;;;;;35.92;8.13;;;20.70;60.00;;;;;;5011592;28;87740;-66
2021/10/17 11:13:45;;;;;;;32.22;7.07;;;20.70;59.90;;;;;;5011376;28;88402;-69
2021/10/17 11:16:22;;;;;;;33.50;7.65;;;20.70;59.80;;;;;;5011520;28;87132;-66
2021/10/17 11:18:58;;;;;;;26.60;7.10;;;20.70;59.80;;;;;;5011751;28;86014;-72
2021/10/17 11:21:30;;;;;;;31.83;8.27;;;20.80;59.90;;;;;;5012378;28;86938;-71
2021/10/17 11:23:56;;;;;;;38.10;7.88;;;20.80;59.90;;;;;;5012832;28;87207;-73
2021/10/17 11:26:21;;;;;;;31.40;7.50;;;20.80;59.80;;;;;;5012958;28;85756;-68
2021/10/17 11:28:49;;;;;;;27.35;7.43;;;20.80;59.80;;;;;;5014120;28;86230;-72
2021/10/17 11:31:20;;;;;;;31.00;7.43;;;20.80;59.80;;;;;;5012809;28;88591;-70
2021/10/17 11:33:46;;;;;;;30.40;6.95;;;20.80;59.70;;;;;;5010827;28;90362;-72
2021/10/17 11:36:17;;;;;;;22.75;6.85;;;20.80;59.70;;;;;;5011709;28;85991;-72
2021/10/17 11:38:44;;;;;;;26.60;7.95;;;20.80;59.70;;;;;;5009953;28;86445;-71
2021/10/17 11:41:14;;;;;;;27.23;7.25;;;20.80;59.60;;;;;;5011779;28;86450;-64
2021/10/17 11:43:43;;;;;;;24.38;7.13;;;20.80;59.60;;;;;;5011026;28;87160;-65
2021/10/17 11:46:14;;;;;;;29.27;7.60;;;20.80;59.60;;;;;;5010382;28;85933;-72
2021/10/17 11:48:41;;;;;;;29.67;7.00;;;20.80;59.60;;;;;;5012732;28;86739;-71
2021/10/17 11:51:13;;;;;;;24.27;6.50;;;20.80;59.50;;;;;;5010104;28;88056;-65
2021/10/17 11:53:39;;;;;;;25.85;6.97;;;20.90;59.60;;;;;;5010218;28;87248;-74
2021/10/17 11:56:09;;;;;;;24.95;7.25;;;20.90;60.10;;;;;;5012579;28;87267;-72
2021/10/17 11:58:37;;;;;;;31.38;7.18;;;20.90;59.60;;;;;;5012704;28;86313;-66
2021/10/17 12:01:14;;;;;;;25.33;6.68;;;20.90;59.50;;;;;;5012797;28;86760;-71
2021/10/17 12:03:42;;;;;;;19.52;6.55;;;20.90;59.50;;;;;;5010874;28;87901;-70
2021/10/17 12:06:19;;;;;;;17.65;7.03;;;20.90;59.50;;;;;;5010311;28;86162;-65
2021/10/17 12:08:53;;;;;;;22.98;6.40;;;20.90;59.40;;;;;;5011115;28;86873;-66
2021/10/17 12:11:20;;;;;;;27.13;6.75;;;20.90;59.40;;;;;;5011717;28;87625;-72
2021/10/17 12:13:52;;;;;;;22.00;6.72;;;20.90;59.50;;;;;;5012632;28;86624;-66
2021/10/17 12:16:24;;;;;;;19.50;6.15;;;20.90;59.40;;;;;;5011067;28;86632;-72
2021/10/17 12:18:55;;;;;;;22.33;6.22;;;20.90;59.40;;;;;;5011137;28;86642;-72
2021/10/17 12:21:32;;;;;;;24.83;5.63;;;21.00;59.40;;;;;;5012154;28;86996;-71
2021/10/17 12:23:59;;;;;;;23.48;6.07;;;21.00;59.40;;;;;;5011020;28;88489;-71
2021/10/17 12:26:30;;;;;;;22.85;6.72;;;21.00;59.40;;;;;;5010299;28;86072;-69
2021/10/17 12:29:33;;;;;;;17.58;5.85;;;21.00;59.30;;;;;;5010988;28;86858;-71
2021/10/17 12:32:03;;;;;;;22.58;6.10;;;21.00;59.30;;;;;;5008247;28;87234;-70
2021/10/17 12:34:37;;;;;;;17.25;6.43;;;21.00;59.30;;;;;;5008022;28;86590;-70
2021/10/17 12:37:03;;;;;;;19.02;5.72;;;21.00;59.20;;;;;;5008449;28;86572;-72
2021/10/17 12:39:28;;;;;;;18.58;5.75;;;21.00;59.20;;;;;;5010127;28;86963;-73
2021/10/17 12:41:58;;;;;;;19.58;5.55;;;21.00;59.20;;;;;;5009747;28;86151;-66
2021/10/17 12:44:24;;;;;;;14.30;5.30;;;21.00;59.10;;;;;;5008936;28;86882;-69
2021/10/17 12:47:04;;;;;;;19.73;5.70;;;21.00;59.10;;;;;;5008503;28;86442;-73
2021/10/17 12:50:01;;;;;;;17.80;5.47;;;21.00;59.10;;;;;;4991513;28;86864;-71
2021/10/17 12:52:32;;;;;;;21.05;5.85;;;21.00;59.10;;;;;;5000271;28;88006;-69
2021/10/17 12:54:59;;;;;;;15.80;4.75;;;21.00;59.10;;;;;;4992426;28;88061;-74
2021/10/17 12:57:25;;;;;;;13.50;4.82;;;21.00;59.00;;;;;;5008696;28;87623;-73
2021/10/17 12:59:58;;;;;;;19.25;5.50;;;21.00;59.00;;;;;;5008240;28;86528;-64
2021/10/17 13:02:44;;;;;;;15.68;5.05;;;21.10;59.10;;;;;;5009327;28;86632;-71
2021/10/17 13:05:18;;;;;;;12.95;5.18;;;21.00;59.00;;;;;;5010111;28;86464;-65
2021/10/17 13:07:44;;;;;;;15.65;5.15;;;21.00;59.00;;;;;;5011236;28;86637;-70
2021/10/17 13:10:29;;;;;;;13.85;4.93;;;21.10;59.00;;;;;;5009076;28;85790;-70
2021/10/17 13:12:55;;;;;;;15.32;5.03;;;21.10;58.90;;;;;;5006304;28;86842;-69
2021/10/17 13:15:27;;;;;;;15.20;5.85;;;21.00;58.90;;;;;;4991292;28;90285;-70
2021/10/17 13:17:55;;;;;;;14.25;5.18;;;21.10;59.00;;;;;;4991403;28;86270;-73
2021/10/17 13:20:26;;;;;;;15.70;5.20;;;21.10;58.90;;;;;;4990650;28;86467;-70
2021/10/17 13:22:58;;;;;;;18.17;5.30;;;21.10;58.90;;;;;;4990045;28;88122;-72
2021/10/17 13:25:24;;;;;;;15.10;5.43;;;21.10;59.00;;;;;;5008240;28;86539;-70
2021/10/17 13:27:52;;;;;;;14.18;4.57;;;21.10;59.00;;;;;;4990177;28;86445;-71
2021/10/17 13:30:18;;;;;;;16.70;4.72;;;21.10;59.00;;;;;;4991064;28;87027;-72
2021/10/17 13:32:44;;;;;;;14.88;4.75;;;21.20;59.00;;;;;;5008313;28;86349;-69
2021/10/17 13:35:10;;;;;;;10.55;4.05;;;21.30;59.00;;;;;;4990502;28;86917;-71
2021/10/17 13:37:36;;;;;;;13.38;4.40;;;21.30;58.90;;;;;;4989856;28;86267;-66
2021/10/17 13:40:23;;;;;;;20.55;3.88;;;21.40;58.80;;;;;;4989874;28;86277;-72
2021/10/17 13:42:54;;;;;;;13.18;4.63;;;21.40;58.60;;;;;;4986229;28;86944;-71
2021/10/17 13:45:20;;;;;;;11.15;3.78;;;21.50;58.50;;;;;;4987461;28;87225;-72
2021/10/17 13:47:46;;;;;;;13.57;4.18;;;21.50;58.30;;;;;;4987599;28;86462;-69
2021/10/17 13:50:13;;;;;;;9.20;3.88;;;21.60;58.30;;;;;;4987003;28;86631;-65
2021/10/17 13:52:38;;;;;;;9.98;3.95;;;21.70;58.20;;;;;;4970464;28;88075;-70
2021/10/17 13:55:05;;;;;;;11.68;4.10;;;21.70;58.20;;;;;;4983998;28;87344;-71
2021/10/17 13:57:31;;;;;;;12.35;5.05;;;21.70;58.10;;;;;;4969162;28;86931;-72
2021/10/17 13:59:58;;;;;;;8.85;3.42;;;21.80;58.10;;;;;;4986356;28;86316;-68
2021/10/17 14:02:42;;;;;;;8.80;3.83;;;21.80;58.10;;;;;;4985790;28;86778;-68
2021/10/17 14:05:09;;;;;;;12.45;3.88;;;21.80;58.00;;;;;;4986489;28;86597;-72
2021/10/17 14:07:35;;;;;;;14.65;3.88;;;21.80;58.00;;;;;;4983944;28;86012;-71
2021/10/17 14:10:00;;;;;;;9.02;4.00;;;21.80;58.00;;;;;;4983159;28;86255;-71
2021/10/17 14:12:26;;;;;;;10.15;3.63;;;21.80;58.00;;;;;;4981927;28;87148;-71
2021/10/17 14:14:52;;;;;;;8.15;3.90;;;21.80;58.10;;;;;;5019864;28;86418;-68
2021/10/17 14:17:18;;;;;;;8.95;3.00;;;21.80;58.00;;;;;;5006776;28;86722;-70
2021/10/17 14:19:44;;;;;;;7.80;3.60;;;21.80;58.10;;;;;;5010887;28;87000;-64
2021/10/17 14:22:11;;;;;;;9.05;3.75;;;21.80;58.10;;;;;;5027386;28;87056;-69
2021/10/17 14:24:36;;;;;;;11.88;3.05;;;21.80;58.10;;;;;;5009430;28;88411;-71
2021/10/17 14:27:03;;;;;;;10.27;3.72;;;21.80;58.10;;;;;;5028959;28;86264;-71
2021/10/17 14:29:29;;;;;;;10.73;3.88;;;21.80;58.10;;;;;;5028668;28;86557;-71
2021/10/17 14:31:54;;;;;;;10.52;3.30;;;21.80;58.00;;;;;;5011234;28;87370;-70
2021/10/17 14:34:20;;;;;;;9.43;3.67;;;21.80;58.00;;;;;;5016131;28;86760;-71
2021/10/17 14:36:46;;;;;;;10.70;3.72;;;21.80;58.00;;;;;;5011439;28;86394;-71
2021/10/17 14:39:12;;;;;;;9.10;3.28;;;21.80;58.10;;;;;;5011556;28;86370;-65
2021/10/17 14:41:38;;;;;;;6.55;3.08;;;21.70;58.10;;;;;;5009282;28;86369;-71
2021/10/17 14:44:05;;;;;;;9.60;2.97;;;21.80;58.10;;;;;;5009020;28;86542;-64
2021/10/17 14:46:30;;;;;;;7.38;3.33;;;21.70;58.10;;;;;;5007606;28;86813;-69
2021/10/17 14:48:56;;;;;;;8.85;3.40;;;21.70;58.20;;;;;;5007832;28;86748;-72
2021/10/17 14:51:22;;;;;;;8.50;2.90;;;21.70;58.30;;;;;;5010439;28;85852;-68
2021/10/17 14:53:47;;;;;;;9.73;3.88;;;21.70;58.30;;;;;;5008144;28;89597;-67
2021/10/17 14:56:13;;;;;;;7.15;3.00;;;21.60;58.30;;;;;;5009759;28;86797;-71
2021/10/17 14:58:38;;;;;;;8.38;3.00;;;21.60;58.30;;;;;;5009129;28;85979;-70
2021/10/17 15:01:07;;;;;;;4.97;2.45;;;21.60;58.30;;;;;;5009961;28;87705;-69
2021/10/17 15:03:33;;;;;;;7.30;2.83;;;21.60;58.40;;;;;;5009346;28;88482;-70
2021/10/17 15:05:59;;;;;;;10.35;3.33;;;21.60;58.60;;;;;;5010581;28;86262;-71
2021/10/17 15:08:24;;;;;;;7.05;3.08;;;21.60;58.70;;;;;;5010458;28;86772;-70
2021/10/17 15:10:51;;;;;;;10.70;2.85;;;21.60;58.80;;;;;;5009049;28;85790;-70
2021/10/17 15:13:17;;;;;;;6.70;2.90;;;21.60;59.30;;;;;;5008195;28;88127;-72
2021/10/17 15:15:42;;;;;;;9.88;3.65;;;21.60;59.30;;;;;;5010259;28;86800;-70
2021/10/17 15:18:08;;;;;;;7.03;3.25;;;21.60;59.30;;;;;;5009317;28;86787;-70
2021/10/17 15:20:34;;;;;;;8.30;2.95;;;21.60;59.40;;;;;;5010499;28;86927;-63
2021/10/17 15:23:00;;;;;;;10.93;3.08;;;21.60;59.40;;;;;;5009301;28;87872;-69
2021/10/17 15:25:26;;;;;;;8.00;3.17;;;21.60;59.50;;;;;;5005909;28;86418;-65
2021/10/17 15:27:51;;;;;;;8.48;2.58;;;21.60;59.50;;;;;;5009811;28;86994;-73
2021/10/17 15:30:17;;;;;;;8.27;3.50;;;21.50;59.90;;;;;;5008682;28;86645;-69
2021/10/17 15:32:43;;;;;;;8.95;3.20;;;21.50;60.00;;;;;;5009876;28;86212;-69
2021/10/17 15:35:28;;;;;;;7.05;2.85;;;21.60;60.10;;;;;;5007207;28;85902;-68
2021/10/17 15:37:54;;;;;;;10.15;2.95;;;21.60;60.00;;;;;;5005818;28;86450;-70
2021/10/17 15:40:20;;;;;;;10.00;3.25;;;21.50;60.40;;;;;;5005225;28;87086;-68
2021/10/17 15:42:48;;;;;;;7.90;2.75;;;21.50;60.20;;;;;;5006074;28;86835;-63
2021/10/17 15:45:14;;;;;;;11.05;2.75;;;21.50;60.20;;;;;;5006905;28;86449;-63
2021/10/17 15:47:39;;;;;;;11.38;2.88;;;21.50;60.20;;;;;;4989747;28;86604;-64
2021/10/17 15:50:06;;;;;;;10.63;3.00;;;21.50;60.20;;;;;;5006705;28;86149;-65
2021/10/17 15:52:32;;;;;;;14.88;3.47;;;21.50;60.20;;;;;;5006859;28;86906;-67
2021/10/17 15:54:59;;;;;;;14.70;3.08;;;21.50;60.10;;;;;;4989357;28;87105;-65
2021/10/17 15:57:25;;;;;;;12.27;3.38;;;21.50;60.00;;;;;;4987257;28;86825;-65
2021/10/17 15:59:52;;;;;;;11.90;3.30;;;21.60;60.10;;;;;;5005848;28;90018;-66
2021/10/17 16:02:17;;;;;;;10.32;3.17;;;21.50;59.90;;;;;;4989644;28;89104;-65
2021/10/17 16:04:46;;;;;;;9.52;2.75;;;21.60;59.80;;;;;;4990029;28;86174;-66
2021/10/17 16:07:13;;;;;;;8.40;3.35;;;21.60;60.00;;;;;;5005236;28;86676;-65
2021/10/17 16:09:38;;;;;;;5.47;2.47;;;21.60;59.50;;;;;;5000699;28;87921;-66
2021/10/17 16:12:06;;;;;;;13.65;3.42;;;21.50;59.40;;;;;;5007431;28;86439;-65
2021/10/17 16:14:32;;;;;;;10.95;3.13;;;21.60;59.40;;;;;;5008912;28;86401;-66
2021/10/17 16:16:58;;;;;;;11.75;3.40;;;21.60;59.30;;;;;;5006116;28;86679;-65
2021/10/17 16:19:23;;;;;;;11.30;3.65;;;21.60;59.20;;;;;;5006201;28;88219;-63
2021/10/17 16:21:49;;;;;;;8.30;2.95;;;21.60;59.20;;;;;;5007241;28;86461;-66
2021/10/17 16:24:15;;;;;;;8.35;3.45;;;21.50;59.10;;;;;;5006925;28;87072;-63
2021/10/17 16:26:40;;;;;;;7.50;3.25;;;21.60;59.20;;;;;;5007946;28;86305;-66
2021/10/17 16:29:06;;;;;;;10.02;3.28;;;21.50;59.20;;;;;;5007387;28;90402;-66
2021/10/17 16:31:53;;;;;;;9.50;3.15;;;21.50;59.20;;;;;;5009503;28;86450;-66
2021/10/17 16:34:20;;;;;;;7.95;3.15;;;21.50;59.20;;;;;;5005038;28;87079;-65
2021/10/17 16:36:46;;;;;;;8.63;3.95;;;21.50;59.20;;;;;;4988102;28;87285;-66
2021/10/17 16:39:12;;;;;;;13.25;4.00;;;21.50;59.20;;;;;;4987366;28;89830;-64
2021/10/17 16:41:38;;;;;;;12.48;6.00;;;21.50;59.30;;;;;;4986943;28;88838;-66
2021/10/17 16:44:04;;;;;;;13.95;8.13;;;21.50;59.90;;;;;;4988472;28;86880;-66
2021/10/17 16:46:32;;;;;;;14.77;8.57;;;21.50;60.80;;;;;;4988817;28;86926;-65
2021/10/17 16:49:16;;;;;;;18.08;8.27;;;21.50;61.00;;;;;;4984509;28;86434;-65
2021/10/17 16:51:43;;;;;;;14.82;7.80;;;21.50;61.10;;;;;;4984558;28;87152;-66
2021/10/17 16:54:09;;;;;;;14.95;7.18;;;21.50;60.50;;;;;;4967893;28;86924;-63
2021/10/17 16:56:34;;;;;;;15.65;6.78;;;21.50;60.30;;;;;;4984735;28;86739;-66
2021/10/17 16:59:00;;;;;;;13.63;7.32;;;21.50;60.20;;;;;;4984520;28;86863;-64
2021/10/17 17:01:28;;;;;;;12.13;6.47;;;21.50;60.20;;;;;;4985273;28;86229;-65
2021/10/17 17:03:54;;;;;;;12.43;6.53;;;21.50;60.10;;;;;;4985920;28;86613;-65
2021/10/17 17:06:20;;;;;;;15.35;8.27;;;21.50;60.20;;;;;;4986464;28;86415;-65
2021/10/17 17:08:46;;;;;;;11.45;6.32;;;21.50;60.20;;;;;;4993991;28;86031;-67
2021/10/17 17:11:12;;;;;;;15.05;6.70;;;21.50;60.30;;;;;;4977405;28;88975;-64
2021/10/17 17:13:40;;;;;;;13.45;6.72;;;21.50;60.40;;;;;;4986574;28;87017;-65
2021/10/17 17:16:24;;;;;;;10.85;6.50;;;21.50;60.40;;;;;;5003193;28;86890;-65
2021/10/17 17:18:50;;;;;;;15.70;7.20;;;21.50;60.40;;;;;;5003104;28;86752;-64
2021/10/17 17:21:15;;;;;;;14.85;7.28;;;21.50;60.40;;;;;;4999467;28;87535;-65
2021/10/17 17:23:41;;;;;;;21.42;6.10;;;21.50;60.20;;;;;;5002283;28;86967;-63
2021/10/17 17:26:07;;;;;;;20.08;7.47;;;21.50;60.10;;;;;;5008109;28;87399;-63
2021/10/17 17:28:33;;;;;;;31.48;7.72;;;21.50;60.10;;;;;;5007250;28;88258;-64
2021/10/17 17:31:00;;;;;;;26.77;7.47;;;21.50;60.10;;;;;;5006473;28;87527;-65
2021/10/17 17:33:26;;;;;;;32.05;8.52;;;21.50;60.10;;;;;;5007489;28;86445;-63
2021/10/17 17:35:52;;;;;;;28.15;8.05;;;21.50;60.10;;;;;;5007674;28;87093;-64
2021/10/17 17:38:18;;;;;;;25.23;6.80;;;21.50;60.20;;;;;;5007441;28;87671;-63
2021/10/17 17:40:46;;;;;;;34.75;7.07;;;21.50;60.70;;;;;;5022597;28;86445;-63
2021/10/17 17:43:30;;;;;;;23.95;7.45;;;21.50;60.10;;;;;;4981743;28;86574;-63
2021/10/17 17:46:15;;;;;;;19.25;6.70;;;21.50;60.00;;;;;;4981833;28;86766;-63
2021/10/17 17:48:42;;;;;;;21.63;7.30;;;21.50;59.80;;;;;;4962865;28;90183;-63
2021/10/17 17:51:07;;;;;;;22.92;6.70;;;21.50;59.70;;;;;;4947904;28;89324;-63
2021/10/17 17:53:33;;;;;;;25.73;6.75;;;21.50;59.60;;;;;;4964364;28;86595;-63
2021/10/17 17:55:59;;;;;;;25.33;7.38;;;21.50;59.50;;;;;;4965233;28;86235;-64
2021/10/17 17:58:29;;;;;;;32.28;7.07;;;21.50;59.40;;;;;;4958735;28;87017;-63
2021/10/17 18:00:58;;;;;;;21.65;6.88;;;21.50;59.30;;;;;;4957050;28;89515;-63
2021/10/17 18:03:42;;;;;;;23.73;7.20;;;21.50;59.20;;;;;;4959631;28;86683;-64
2021/10/17 18:06:08;;;;;;;27.05;7.25;;;21.50;59.10;;;;;;4964203;28;86385;-63
2021/10/17 18:08:33;;;;;;;16.35;6.30;;;21.50;59.00;;;;;;4960619;28;86506;-63
2021/10/17 18:11:00;;;;;;;16.23;6.65;;;21.50;59.00;;;;;;4963834;28;87212;-63
2021/10/17 18:13:27;;;;;;;21.08;6.72;;;21.50;58.90;;;;;;4966647;28;86878;-64
2021/10/17 18:15:54;;;;;;;23.85;7.07;;;21.50;58.90;;;;;;4966930;28;86031;-63
2021/10/17 18:18:20;;;;;;;24.88;6.20;;;21.50;58.90;;;;;;4999744;28;90673;-64
2021/10/17 18:20:46;;;;;;;16.40;6.28;;;21.50;58.80;;;;;;5003130;28;87491;-63
2021/10/17 18:23:12;;;;;;;15.60;6.85;;;21.50;58.80;;;;;;5000166;28;86410;-63
2021/10/17 18:25:43;;;;;;;17.30;7.40;;;21.50;58.80;;;;;;4998382;28;87162;-64
2021/10/17 18:28:11;;;;;;;18.47;6.47;;;21.40;58.80;;;;;;5008623;28;87209;-64
2021/10/17 18:30:58;;;;;;;15.43;6.40;;;21.40;58.80;;;;;;5000938;28;89344;-63
2021/10/17 18:33:26;;;;;;;20.90;7.47;;;21.40;58.70;;;;;;4979634;28;86385;-64
2021/10/17 18:35:53;;;;;;;20.80;7.13;;;21.50;58.80;;;;;;4979455;28;87312;-64
2021/10/17 18:38:19;;;;;;;16.30;6.85;;;21.40;58.80;;;;;;4979286;28;89735;-64
2021/10/17 18:40:46;;;;;;;11.88;6.28;;;21.40;58.70;;;;;;4980324;28;86751;-63
2021/10/17 18:43:11;;;;;;;12.63;6.18;;;21.40;58.80;;;;;;4963141;28;86884;-63
2021/10/17 18:45:38;;;;;;;17.50;7.30;;;21.40;58.80;;;;;;4979739;28;86448;-63
2021/10/17 18:48:07;;;;;;;18.45;6.25;;;21.40;58.80;;;;;;4963529;28;88900;-64
2021/10/17 18:50:36;;;;;;;16.92;6.50;;;21.40;58.90;;;;;;4979617;28;87549;-63
2021/10/17 18:53:03;;;;;;;17.90;6.80;;;21.30;58.90;;;;;;4962516;28;86642;-63
2021/10/17 18:55:38;;;;;;;16.70;6.30;;;21.30;59.40;;;;;;4962811;28;87193;-63
2021/10/17 18:58:03;;;;;;;13.93;6.57;;;21.30;58.90;;;;;;4979431;28;86683;-64
2021/10/17 19:00:29;;;;;;;19.13;6.90;;;21.30;58.90;;;;;;4978393;28;87451;-65
2021/10/17 19:02:58;;;;;;;20.23;6.10;;;21.30;59.00;;;;;;4979373;28;88388;-63
2021/10/17 19:05:27;;;;;;;12.00;6.88;;;21.30;59.10;;;;;;4996785;28;86863;-68
2021/10/17 19:07:54;;;;;;;21.90;7.10;;;21.30;59.10;;;;;;5001213;28;86212;-63
2021/10/17 19:10:20;;;;;;;19.48;7.07;;;21.30;59.10;;;;;;5002727;28;87265;-63
2021/10/17 19:12:46;;;;;;;15.93;6.55;;;21.30;59.20;;;;;;5001878;28;86632;-65
2021/10/17 19:15:12;;;;;;;13.05;6.18;;;21.30;59.20;;;;;;5002619;28;85852;-65
2021/10/17 19:17:38;;;;;;;15.35;6.28;;;21.30;59.20;;;;;;5002246;28;86343;-63
2021/10/17 19:20:07;;;;;;;14.73;6.57;;;21.30;59.20;;;;;;5001085;28;86984;-64
2021/10/17 19:22:33;;;;;;;13.30;6.30;;;21.30;59.30;;;;;;5000219;28;87085;-64
2021/10/17 19:24:58;;;;;;;13.48;6.45;;;21.30;59.40;;;;;;4999512;28;86755;-64
2021/10/17 19:27:24;;;;;;;15.05;6.70;;;21.30;59.40;;;;;;5001549;28;86395;-63
2021/10/17 19:29:50;;;;;;;15.50;5.90;;;21.30;59.40;;;;;;5002395;28;88031;-64
2021/10/17 19:32:16;;;;;;;12.65;6.30;;;21.30;59.50;;;;;;4997797;28;87178;-64
2021/10/17 19:34:42;;;;;;;14.60;6.53;;;21.30;59.50;;;;;;5001073;28;85985;-64
2021/10/17 19:37:08;;;;;;;15.38;6.50;;;21.30;59.50;;;;;;5007396;28;87389;-64
2021/10/17 19:39:34;;;;;;;15.50;6.68;;;21.30;59.60;;;;;;5008564;28;87394;-63
2021/10/17 19:41:59;;;;;;;13.15;6.70;;;21.30;59.80;;;;;;5009810;28;86253;-64
2021/10/17 19:44:25;;;;;;;14.68;6.43;;;21.20;59.90;;;;;;5008230;28;87898;-65
2021/10/17 19:46:51;;;;;;;15.90;7.85;;;21.20;60.10;;;;;;5010094;28;86117;-65
2021/10/17 19:49:17;;;;;;;15.32;6.40;;;21.30;60.20;;;;;;5008898;28;89407;-65
2021/10/17 19:51:44;;;;;;;13.55;6.70;;;21.30;60.20;;;;;;5009519;28;87162;-65
2021/10/17 19:54:10;;;;;;;14.75;7.03;;;21.20;60.30;;;;;;5008474;28;87497;-65
2021/10/17 19:56:36;;;;;;;14.77;6.75;;;21.20;60.40;;;;;;5009037;28;90080;-65
2021/10/17 19:59:02;;;;;;;16.10;6.20;;;21.20;60.40;;;;;;5010061;28;87051;-65
2021/10/17 20:01:28;;;;;;;16.35;6.90;;;21.20;60.50;;;;;;5008349;28;87364;-64
2021/10/17 20:03:54;;;;;;;16.70;7.47;;;21.20;60.60;;;;;;5009200;28;87120;-65
2021/10/17 20:06:19;;;;;;;14.52;7.13;;;21.20;60.60;;;;;;5009974;28;87373;-65
2021/10/17 20:08:45;;;;;;;21.70;7.13;;;21.20;60.70;;;;;;5010066;28;86429;-63
2021/10/17 20:11:11;;;;;;;12.25;6.43;;;21.20;60.80;;;;;;5006654;28;86787;-65
2021/10/17 20:13:37;;;;;;;12.50;6.00;;;21.20;60.90;;;;;;5009439;28;85748;-65
2021/10/17 20:16:03;;;;;;;13.98;7.30;;;21.10;60.90;;;;;;5007392;28;89397;-65
2021/10/17 20:18:29;;;;;;;18.38;7.07;;;21.20;61.10;;;;;;5009010;28;90286;-65
2021/10/17 20:20:55;;;;;;;21.83;6.78;;;21.20;61.10;;;;;;5010719;28;86794;-65
2021/10/17 20:23:21;;;;;;;16.00;6.70;;;21.10;61.10;;;;;;5009586;28;86505;-64
2021/10/17 20:25:47;;;;;;;16.58;7.32;;;21.10;61.10;;;;;;5011573;28;86683;-65
2021/10/17 20:28:13;;;;;;;15.98;6.57;;;21.10;61.20;;;;;;5009449;28;87318;-64
2021/10/17 20:30:39;;;;;;;14.88;6.93;;;21.10;61.30;;;;;;5009666;28;86833;-65
2021/10/17 20:33:09;;;;;;;15.25;6.35;;;21.10;61.30;;;;;;5011666;28;85745;-65
2021/10/17 20:35:35;;;;;;;15.52;6.60;;;21.10;61.40;;;;;;5009141;28;91582;-65
2021/10/17 20:40:51;;;;;;;19.02;6.55;;;21.10;61.40;;;;;;5004902;28;86388;-65
2021/10/17 20:43:17;;;;;;;12.82;6.32;;;21.10;61.40;;;;;;5010195;28;87320;-65
2021/10/17 20:45:43;;;;;;;18.73;6.82;;;21.10;61.50;;;;;;5009433;28;89940;-67
2021/10/17 20:48:09;;;;;;;12.10;6.32;;;21.10;61.60;;;;;;5010922;28;86485;-65
2021/10/17 20:50:35;;;;;;;20.30;7.18;;;21.10;61.60;;;;;;5009194;28;85871;-65
2021/10/17 20:53:01;;;;;;;17.83;7.65;;;21.00;61.70;;;;;;5009399;28;86872;-65
2021/10/17 20:55:26;;;;;;;15.73;7.18;;;21.10;61.80;;;;;;5008005;28;89185;-65
2021/10/17 20:57:52;;;;;;;18.60;6.88;;;21.00;61.80;;;;;;5007716;28;87942;-65
2021/10/17 21:00:18;;;;;;;15.38;6.97;;;21.00;61.80;;;;;;5010016;28;86947;-66
2021/10/17 21:02:44;;;;;;;17.02;6.78;;;21.00;61.80;;;;;;5008939;28;85918;-65
2021/10/17 21:05:10;;;;;;;12.20;6.60;;;21.00;61.90;;;;;;5011210;28;86755;-64
2021/10/17 21:07:35;;;;;;;17.48;6.63;;;21.00;61.90;;;;;;5009391;28;90252;-65
2021/10/17 21:10:21;;;;;;;17.30;7.00;;;21.00;62.00;;;;;;5010727;28;86318;-67
2021/10/17 21:12:47;;;;;;;15.80;6.95;;;21.00;62.00;;;;;;5005886;28;86591;-65
2021/10/17 21:15:12;;;;;;;16.30;7.10;;;21.00;62.10;;;;;;4990284;28;89515;-64
2021/10/17 21:17:38;;;;;;;12.32;6.22;;;21.00;62.10;;;;;;5007738;28;86998;-64
2021/10/17 21:20:04;;;;;;;13.40;6.57;;;21.00;62.10;;;;;;5007838;28;87115;-65
2021/10/17 21:22:31;;;;;;;14.65;6.65;;;21.00;62.20;;;;;;4990685;28;86250;-65
2021/10/17 21:24:57;;;;;;;17.45;7.40;;;21.00;62.20;;;;;;5007099;28;87056;-64
2021/10/17 21:27:23;;;;;;;14.93;6.70;;;21.00;62.20;;;;;;4989683;28;89456;-65
2021/10/17 21:29:49;;;;;;;10.05;6.60;;;21.00;62.30;;;;;;5008013;28;86418;-65
2021/10/17 21:32:15;;;;;;;13.13;6.03;;;21.00;62.30;;;;;;5007543;28;85866;-64
2021/10/17 21:34:42;;;;;;;13.27;6.45;;;21.00;62.30;;;;;;5006891;28;86850;-65
2021/10/17 21:37:08;;;;;;;11.40;6.03;;;21.00;62.40;;;;;;4990112;28;89650;-65
2021/10/17 21:39:33;;;;;;;12.57;6.57;;;21.00;62.40;;;;;;5007727;28;86279;-65
2021/10/17 21:41:59;;;;;;;16.23;6.82;;;21.00;62.40;;;;;;5007530;28;86739;-65
2021/10/17 21:44:25;;;;;;;13.88;6.43;;;21.00;62.40;;;;;;5009631;28;87094;-65
2021/10/17 21:46:50;;;;;;;14.00;6.88;;;21.00;62.50;;;;;;5010366;28;85944;-65
2021/10/17 21:49:16;;;;;;;14.30;6.95;;;21.00;62.50;;;;;;5010707;28;85855;-65
2021/10/17 21:51:42;;;;;;;10.27;5.78;;;20.90;62.50;;;;;;5009674;28;86688;-65
2021/10/17 21:54:07;;;;;;;15.75;6.35;;;20.90;62.50;;;;;;5010473;28;86920;-65
2021/10/17 21:56:33;;;;;;;10.07;6.13;;;20.90;62.60;;;;;;5009272;28;86698;-65
2021/10/17 21:58:59;;;;;;;11.90;5.85;;;20.90;62.60;;;;;;5009202;28;86564;-68
2021/10/17 22:01:24;;;;;;;13.82;7.10;;;20.90;62.60;;;;;;5008820;28;86833;-65
2021/10/17 22:03:50;;;;;;;15.75;6.97;;;20.90;62.70;;;;;;5009239;28;86551;-65
2021/10/17 22:06:15;;;;;;;10.35;5.90;;;20.90;62.70;;;;;;5007665;28;87694;-65
2021/10/17 22:08:41;;;;;;;12.32;6.07;;;20.90;62.80;;;;;;5009582;28;86885;-65
2021/10/17 22:11:08;;;;;;;13.27;6.32;;;20.90;62.80;;;;;;5009391;28;86859;-65
2021/10/17 22:13:34;;;;;;;12.00;6.18;;;20.90;62.70;;;;;;5008042;28;89855;-65
2021/10/17 22:16:01;;;;;;;12.32;6.25;;;20.90;62.80;;;;;;5014158;22;88995;-65
2021/10/17 22:18:26;;;;;;;16.05;6.57;;;20.90;62.80;;;;;;4950152;28;86590;-65